• Join FlightAware (Why Join?)
  • Login
  • US Flag 
07:41PM EDT


 

Airport Tracker/Info


-or-


 

Live Flight TrackerFlight Track Log ✈ DAL3643 ✈ 18-Aug-2013 ✈ KDTW - KMDW

Flight Track Log - Related Links

Times and Time Zones

All times are in EDT time to prevent confusion due to time zone crossing. See the DAL3643 flight status page for this flight to view local times or setup timezone preferences in your user account.

Time Position Orientation Groundspeed Altitude Reporting Facility
EDT Latitude Longitude Course Direction KTS MPH feet Rate Location/Type
04:01PM 42.2014 -83.3611 276° West 148 170 1,400  Level Cleveland Center
04:02PM 42.1417 -83.4200 216° Southwest 213 245 4,000 2,340 Climbing Cleveland Center
04:03PM 42.0925 -83.4653 214° Southwest 225 259 7,200 2,520 Climbing Cleveland Center
04:04PM 42.2300 -83.8365 276° West  Level FlightAware Approximate
04:04PM 42.0925 -83.5522 270° West 262 302 9,200  Level Cleveland Center
04:05PM 42.2388 -83.9585 276° West  Level FlightAware Approximate
04:05PM 42.1011 -83.6169 280° West 296 341 9,900  Level Cleveland Center
04:06PM 42.2475 -84.0806 276° West  Level FlightAware Approximate
04:06PM 42.1314 -83.7303 290° West 382 440 10,000  Level Cleveland Center
04:07PM 42.1694 -83.8667 291° West 382 440 11,200 1,320 Climbing Cleveland Center
04:08PM 42.2072 -83.9978 291° West 410 472 12,700 1,500 Climbing Cleveland Center
04:09PM 42.2469 -84.1372 291° West 404 465 14,300 1,500 Climbing Cleveland Center
04:10PM 42.2611 -84.2783 278° West 393 452 15,700 1,500 Climbing Cleveland Center
04:11PM 42.2583 -84.4242 269° West 386 444 17,300 1,440 Climbing Cleveland Center
04:12PM 42.2514 -84.5697 266° West 391 450 18,600 1,260 Climbing Cleveland Center
04:12PM 42.2472 -84.6442 266° West 391 450 19,300 1,200 Climbing Chicago Center
04:13PM 42.2278 -84.7856 260° West 392 451 20,500 1,140 Climbing Chicago Center
04:14PM 42.1475 -84.8878 223° Southwest 398 458 21,700 720 Climbing Chicago Center
04:15PM 42.0625 -84.9875 221° Southwest 402 463 22,000 120 Climbing Chicago Center
04:16PM 41.9583 -85.1072 221° Southwest 427 491 22,000  Level Chicago Center
04:17PM 41.8639 -85.2169 221° Southwest 447 514 22,000  Level Chicago Center
04:18PM 41.7694 -85.3267 221° Southwest 452 520 22,000  Level Chicago Center
04:19PM 41.6639 -85.4447 220° Southwest 457 526 22,000 -180 Level Chicago Center
04:20PM 41.5733 -85.5742 227° Southwest 465 535 21,700 -900 Descending Chicago Center
04:21PM 41.5522 -85.7353 260° West 445 512 20,200 -1,680 Descending Chicago Center
04:22PM 41.5367 -85.8983 263° West 443 510 18,200 -1,860 Descending Chicago Center
04:24PM 41.5244 -86.0536 264° West 426 490 16,400 -1,920 Descending Chicago Center
04:25PM 41.5242 -86.2033 270° West 406 467 14,300 -2,040 Descending Chicago Center
04:26PM 41.5233 -86.3481 270° West 393 452 12,300 -1,140 Descending Chicago Center
04:27PM 41.5217 -86.5086 269° West 359 413 12,000 -660 Descending Chicago Center
04:28PM 41.5208 -86.6286 270° West 331 381 11,000 -1,080 Descending Chicago Center
04:29PM 41.5208 -86.7503 270° West 311 358 9,800 -1,200 Descending Chicago Center
04:30PM 41.5178 -86.8536 268° West 285 328 8,600 -1,080 Descending Chicago Center
04:31PM 41.5169 -86.9567 269° West 281 323 7,600 -1,020 Descending Chicago Center
04:32PM 41.5178 -87.0600 271° West 280 322 6,600 -1,020 Descending Chicago Center
04:33PM 41.5489 -87.1769 290° West 281 323 5,600 -1,020 Descending Chicago Center
04:34PM 41.5714 -87.2719 288° West 274 315 4,600 -780 Descending Chicago Center
04:35PM 41.5933 -87.3681 287° West 273 314 4,000 -300 Descending Chicago Center
04:36PM 41.6161 -87.4619 288° West 270 311 4,000  Level Chicago Center
04:37PM 41.6197 -87.5606 273° West 269 310 4,000 -540 Level Chicago Center
04:39PM 41.6500 -87.7500 282° West 260 299 2,600 -600 Descending Chicago TRACON
04:40PM 41.6833 -87.8000 312° West 208 239 2,500 -360 Descending Chicago TRACON
04:41PM 41.7333 -87.8167 346° North 168 193 2,000 -600 Descending Chicago TRACON
04:42PM 41.7500 -87.7833 56° Northeast 144 166 1,400 -600 Descending Chicago TRACON